Tiempo atmosférico en la estación meteorológica de Herrera Del Duque, Badajoz (447 m.)



Fecha
DESCASC
Temp. máxima en grados centígrados (hora)
DESCASC
Temp. mínima en grados centígrados (hora)
DESCASC
Temp. media en grados centígrados
DESCASC
Racha de viento máxima en m/sg (hora)
DESCASC
Velocidad máxima media en intervalos de 10 minutos(hora)
DESCASC
Precipitaciones diarias en mm
DESCASC
Precipitaciones de 00:00 a 06:00 en mm
DESCASC
Precipitaciones de 06:00 a 12:00 en mm
DESCASC
Precipitaciones de 12:00 a 18:00 en mm
DESCASC
Precipitaciones de 18:00 a 24:00 en mm
DESCASC
23-06-2019 35.2 (17:40) 19 (04:50) 27.1 7.78 (17:50) 5 (17:50) 0 0 0 0 0
22-06-2019 34.1 (19:00) 14.7 (06:30) 24.4 9.44 (14:00) 5 (13:30) 0 0 0 0 0
21-06-2019 31.2 (18:40) 14.3 (07:00) 22.8 7.78 (03:30) 4.17 (00:20) 0 0 0 0 0
20-06-2019 29 (17:10) 15.1 (00:00) 22.1 8.89 (16:50) 5.56 (18:40) 0 0 0 0 0
19-06-2019 27.5 (17:10) 17.3 (00:00) 22.4 11.67 (16:20) 5.83 (17:50) 0 0 0 0 0
18-06-2019 30 (16:00) 20 (00:00) 25 10.56 (14:20) 6.11 (21:10) 0 0 0 0 0
17-06-2019 33.4 (18:40) 17 (00:00) 25.2 8.61 (18:00) 5.28 (16:20) 0 0 0 0 0
16-06-2019 32.3 (17:30) 11.9 (00:00) 22.1 9.44 (18:40) 4.72 (19:00) 0 0 0 0 0
15-06-2019 27 (19:00) 9.6 (00:00) 18.3 7.5 (14:10) 3.61 (14:10) 0 0 0 0 0
14-06-2019 22.9 (18:00) 12.6 (00:00) 17.8 11.67 (17:00) 6.39 (16:10) 0 0 0 0 0
13-06-2019 30.2 (17:50) 13.2 (00:00) 21.7 9.17 (17:50) 5.83 (18:00) 0 0 0 0 0
12-06-2019 28.2 (18:00) 9.7 (00:00) 19 8.89 (18:40) 4.72 (16:40) 0 0 0 0 0
11-06-2019 26.9 (15:20) 13.2 (00:00) 20 11.39 (17:10) 7.22 (16:50) 0 0 0 0 0
10-06-2019 28.6 (18:10) 13.5 (00:00) 21.1 9.72 (19:30) 5.83 (19:20) 0 0 0 0 0
09-06-2019 27.3 (19:00) 14.8 (00:00) 21 10.83 (22:30) 6.39 (22:30) 0 0 0 0 0
08-06-2019 29.5 (17:50) 9.7 (00:00) 19.6 9.17 (16:20) 4.72 (17:00) 0 0 0 0 0
07-06-2019 24.7 (19:20) 11.4 (00:00) 18.1 12.78 (02:50) 6.94 (02:30) 0 0 0 0 0
06-06-2019 25.5 (18:00) 11.1 (00:00) 18.3 13.06 (21:10) 6.94 (21:10) 0 0 0 0 0
05-06-2019 22.9 (17:50) 11.4 (00:00) 17.1 11.94 (04:00) 6.67 (14:20) 0 0 0 0 0
04-06-2019 27.9 (16:10) 18.1 (00:00) 23 10.83 (19:40) 6.94 (18:30) 0 0 0 0 0
03-06-2019 34.6 (17:00) 21.3 (00:00) 27.9 8.89 (16:40) 5 (16:20) 0 0 0 0 0
02-06-2019 36.5 (18:40) 17.9 (00:00) 27.2 8.89 (23:40) 4.44 (19:50) 0 0 0 0 0
01-06-2019 35.8 (17:10) 14.9 (00:00) 25.3 8.61 (01:00) 5.28 (01:00) 0 0 0 0 0
31-05-2019 35 (17:20) 15.9 (00:00) 25.4 9.72 (23:00) 5.83 (23:30) 0 0 0 0 0
30-05-2019 33 (18:10) 15.6 (00:00) 24.3 8.61 (16:30) 5.56 (12:30) 0 0 0 0 0
29-05-2019 30.7 (18:20) 15.3 (00:00) 23 10.28 (00:30) 5.83 (11:50) 0 0 0 0 0
28-05-2019 32.8 (18:30) 15.4 (00:00) 24.1 9.17 (23:59) 5.56 (23:59) 0 0 0 0 0

Gráficas

Temp. máximas Temp. mínimas Temp. medias Precipitaciones Rachas de viento máximas Velocidades máximas media en intervalos de 10 minutos

Datos horarios

Fecha y hora oficial Temperatura (ºC) Velocidad del viento (km/h) Dirección del viento Racha (km/h) Dirección de racha Precipitación (mm) Presión (hPa) Tendencia (hPa) Humedad (%)
2019-06-26 23:00:00 28.6 4 Sudoeste 17 Sudoeste 0 963.6 1.4 31
2019-06-26 22:00:00 30.1 8 Oeste 18 Oeste 0 963 0.9 28
2019-06-26 21:00:00 32.7 10 Oeste 28 Oeste 0 962.5 0.4 24
2019-06-26 20:00:00 34.5 10 Sudoeste 27 Sudoeste 0 962.2 -0.5 21
2019-06-26 19:00:00 34.8 13 Sudoeste 32 Sudoeste 0 962.1 -1.4 21
2019-06-26 18:00:00 35 12 Oeste 30 Sudoeste 0 962.1 -1.9 19
2019-06-26 17:00:00 34.5 12 Sudoeste 28 Sudoeste 0 962.7 -2.1 21
2019-06-26 16:00:00 33.4 15 Sudoeste 28 Sur 0 963.5 -1.8 22
2019-06-26 15:00:00 32.4 10 Sur 31 Sudeste 0 964 -1.5 25
2019-06-26 14:00:00 30.8 13 Sudoeste 30 Sudoeste 0 964.8 -0.7 27
2019-06-26 13:00:00 29.8 10 Sur 27 Sur 0 965.3 -0.2 29
2019-06-26 12:00:00 29 8 Sudoeste 25 Sur 0 965.5 0.4 29
2019-06-26 11:00:00 27.5 11 Sudoeste 21 Sur 0 965.5 0.7 29
2019-06-26 10:00:00 26.3 7 Sudoeste 16 Sudoeste 0 965.5 1.2 30
2019-06-26 09:00:00 24 4 Nordeste 7 Oeste 0 965.1 1.2 45
2019-06-26 08:00:00 21.5 2 Noroeste 5 Sudeste 0 964.8 1.1 50
2019-06-26 07:00:00 20.4 2 Oeste 11 Sur 0 964.3 0.8 48
2019-06-26 06:00:00 21 3 Sudoeste 7 Sudeste 0 963.9 0.6 47
2019-06-26 05:00:00 23.5 5 Sudoeste 23 Sudoeste 0 963.7 0.4 33
2019-06-26 04:00:00 25.4 12 Sudoeste 27 Sudoeste 0 963.5 0.6 27
2019-06-26 03:00:00 25.8 9 Sudoeste 17 Sudoeste 0 963.3 0.8 27
2019-06-26 02:00:00 26.9 9 Sudoeste 19 Sudoeste 0 963.3 1.2 25
2019-06-26 01:00:00 28.4 11 Sudoeste 26 Sur 0 962.9 1.4 23
2019-06-26 00:00:00 29.3 8 Sur 22 Sur 0 962.5 1.4 21
2019-06-25 23:00:00 30.2 9 Sudoeste 28 Sur 0 962.1 1.1 18
2019-06-25 22:00:00 31.5 13 Sudoeste 27 Oeste 0 961.5 0.5 14
2019-06-25 21:00:00 33.9 12 Sudoeste 23 Sur 0 961.1 -0.1 14
2019-06-25 20:00:00 34.6 16 Sudoeste 28 Sudoeste 0 961 -0.7 13
2019-06-25 19:00:00 35.1 10 Sur 31 Sudoeste 0 961 -1.3 13
2019-06-25 18:00:00 35.6 10 Sur 24 Sudoeste 0 961.2 -1.6 13
2019-06-25 17:00:00 35.4 8 Sudoeste 26 Sur 0 961.7 -1.8 14
2019-06-25 16:00:00 33.7 11 Sur 29 Sudoeste 0 962.3 -1.6 17
2019-06-25 15:00:00 32.8 10 Sudoeste 28 Sudoeste 0 962.8 -1.4 19
2019-06-25 14:00:00 32.1 11 Sudoeste 27 Sudoeste 0 963.5 -0.7 19
2019-06-25 13:00:00 30.6 12 Sudoeste 27 Sudoeste 0 963.9 -0.5 23
2019-06-25 12:00:00 29.1 9 Sur 20 Sudoeste 0 964.2 -0.1 26
2019-06-25 11:00:00 27.3 6 Este 17 Sudeste 0 964.2 -0.1 35
2019-06-25 10:00:00 26 4 Nordeste 7 Nordeste 0 964.4 1 37
2019-06-25 09:00:00 22.7 0 Calma 6 Sudoeste 0 964.3 1.1 47
2019-06-25 08:00:00 19.3 2 Noroeste 8 Norte 0 964.3 1.1 55
2019-06-25 07:00:00 17.7 2 Oeste 6 Sudeste 0 963.4 0.1 63
2019-06-25 06:00:00 19.1 5 Sur 9 Sudeste 0 963.2 -0.3 57
2019-06-25 05:00:00 20.1 4 Sudoeste 6 Sudoeste 0 963.2 -0.4 55
2019-06-25 04:00:00 20.4 2 Oeste 6 Oeste 0 963.3 0.1 55
2019-06-25 03:00:00 20.4 3 Noroeste 5 Noroeste 0 963.5 0.6 54
2019-06-25 02:00:00 20.9 2 Nordeste 5 Sudoeste 0 963.6 1 50
2019-06-25 01:00:00 22.4 4 Sur 13 Oeste 0 963.2 1.6 46
2019-06-25 00:00:00 23.2 7 Oeste 12 Oeste 0 962.9 1.7 44
2019-06-24 23:00:00 24.2 5 Noroeste 14 Oeste 0 962.6 2.3 41
2019-06-24 22:00:00 26.3 12 Oeste 24 Oeste 0 961.6 1.2 37
2019-06-24 21:00:00 29.4 19 Oeste 30 Oeste 0 961.2 0.6 31
2019-06-24 20:00:00 31.9 15 Oeste 28 Oeste 0 960.3 -0.3 23
2019-06-24 19:00:00 32.5 10 Oeste 29 Sudoeste 0 960.4 -0.5 20
2019-06-24 18:00:00 32.8 14 Oeste 31 Oeste 0 960.6 -0.6 22
2019-06-24 17:00:00 32.5 11 Noroeste 26 Noroeste 0 960.6 -0.9 24
2019-06-24 16:00:00 30.8 14 Oeste 24 Sudoeste 0 960.9 -1.1 25
2019-06-24 15:00:00 30.8 8 Sudoeste 36 Oeste 0 961.2 -1.2 25
2019-06-24 14:00:00 30.8 8 Noroeste 23 Sudoeste 0 961.5 -1 27
2019-06-24 13:00:00 28.5 14 Oeste 24 Oeste 0 962 -0.5 32
2019-06-24 12:00:00 28.3 6 Oeste 15 Oeste 0 962.4 0.3 35
2019-06-24 11:00:00 25.9 5 Sur 12 Sudoeste 0 962.5 0.6 46
2019-06-24 10:00:00 24 6 Sudoeste 12 Noroeste 0 962.5 1 52
2019-06-24 09:00:00 22.3 3 Sudeste 5 Nordeste 0 962.1 0.9 57
2019-06-24 08:00:00 20.2 4 Nordeste 7 Nordeste 0 961.9 0.6 46
2019-06-24 07:00:00 20.7 3 Este 11 Sudoeste 0 961.5 0.4 49
2019-06-24 06:00:00 20.6 4 Sudoeste 11 Sudoeste 0 961.2 -0.1 51
2019-06-24 05:00:00 20.8 3 Sudoeste 7 Sur 0 961.3 0.1 40
2019-06-24 04:00:00 22.3 4 Este 8 Sudoeste 0 961.1 -0.1 31
2019-06-24 03:00:00 22.6 3 Oeste 9 Sudoeste 0 961.3 0.4 25
2019-06-24 02:00:00 22.9 6 Sur 8 Sudeste 0 961.2 0.7 25
2019-06-24 01:00:00 24.9 5 Sudoeste 10 Sudoeste 0 961.2 1.5 23
2019-06-24 00:00:00 26.1 6 Oeste 18 Sudoeste 0 960.9 1.6 21
2019-06-23 23:00:00 27.2 9 Oeste 18 Oeste 0 960.5 1.4 22
2019-06-23 22:00:00 28.4 9 Oeste 19 Oeste 0 959.7 0.6 22
2019-06-23 21:00:00 29.8 12 Oeste 18 Oeste 0 959.3 0 20
2019-06-23 20:00:00 31.4 11 Oeste 21 Oeste 0 959.1 -0.6 17
2019-06-23 19:00:00 32.7 14 Oeste 27 Noroeste 0 959.1 -1.4 15
2019-06-23 18:00:00 33.4 10 Oeste 28 Oeste 0 959.3 -1.7 14
2019-06-23 17:00:00 33.6 9 Sudoeste 28 Oeste 0 959.7 -1.8 13
2019-06-23 16:00:00 33.8 14 Sudoeste 26 Sudoeste 0 960.5 -1.6 13
2019-06-23 15:00:00 32.6 10 Sudoeste 26 Oeste 0 961 -1.3 14
2019-06-23 14:00:00 31.9 8 Oeste 26 Sudoeste 0 961.5 -1.1 15
2019-06-23 13:00:00 31.1 8 Sudoeste 24 Sur 0 962.1 -0.7 15
2019-06-23 12:00:00 29.3 8 Norte 12 Norte 0 962.3 -0.2 17
2019-06-23 11:00:00 26.3 5 Nordeste 11 Noroeste 0 962.6 0.6 21
2019-06-23 10:00:00 25.2 2 Este 11 Sur 0 962.8 0.8 23
2019-06-23 09:00:00 23 5 Sudoeste 9 Sudoeste 0 962.5 0.6 26
2019-06-23 08:00:00 20.4 3 Sudeste 13 Sudeste 0 962 0.6 30
2019-06-23 07:00:00 19.2 9 Sur 17 Sur 0 962 0.8 30
2019-06-23 06:00:00 20.3 8 Sudoeste 16 Sudoeste 0 961.9 0.9 27
2019-06-23 05:00:00 19.1 5 Sudoeste 9 Sur 0 961.4 0.4 32
2019-06-23 04:00:00 21.1 3 Este 6 Nordeste 0 961.2 0.1 27
2019-06-23 03:00:00 23.5 3 Oeste 15 Sudoeste 0 961 -0.1 25
2019-06-23 02:00:00 24.8 11 Sudoeste 19 Sudoeste 0 961 0.3 21
2019-06-23 01:00:00 25.6 6 Sudoeste 13 Sudoeste 0 961.1 1 22
2019-06-23 00:00:00 26.4 8 Sudoeste 12 Sudoeste 0 961.1 1.2 24
2019-06-22 23:00:00 25.7 4 Sur 10 Sudoeste 0 960.7 1 25
2019-06-22 22:00:00 28.3 6 Oeste 9 Oeste 0 960.1 0.2 21
2019-06-22 21:00:00 31.4 6 Norte 19 Oeste 0 959.9 -0.7 15
2019-06-22 20:00:00 34 6 Oeste 30 Oeste 0 959.7 -1.4 13
2019-06-22 19:00:00 34 9 Sudoeste 27 Sudoeste 0 959.9 -1.9 12
2019-06-22 18:00:00 33.7 14 Oeste 29 Oeste 0 960.6 -1.9 14
2019-06-22 17:00:00 32.5 11 Sudoeste 25 Sudoeste 0 961.1 -1.9 13
2019-06-22 16:00:00 32.7 16 Oeste 31 Oeste 0 961.8 -1.8 14
2019-06-22 15:00:00 32.1 12 Oeste 29 Oeste 0 962.5 -1.2 15
2019-06-22 14:00:00 30.6 12 Oeste 34 Oeste 0 963 -0.7 18
2019-06-22 13:00:00 30.2 11 Oeste 22 Oeste 0 963.6 -0.3 19
2019-06-22 12:00:00 28.9 7 Oeste 13 Noroeste 0 963.7 -0.3 25
2019-06-22 11:00:00 26.8 3 Sudeste 9 Oeste 0 963.7 -0.1 30
2019-06-22 10:00:00 23.5 5 Este 8 Este 0 963.9 0.7 37
2019-06-22 09:00:00 18.6 3 Sudeste 6 Nordeste 0 964 1 50
2019-06-22 08:00:00 16.7 4 Sudeste 6 Oeste 0 963.8 1 57
2019-06-22 07:00:00 15 3 Sudoeste 4 Oeste 0 963.2 0.1 60
2019-06-22 06:00:00 15.2 0 Calma 4 Sudeste 0 963 0 56
2019-06-22 05:00:00 17.1 3 Este 7 Sur 0 962.8 -0.3 54
2019-06-22 04:00:00 18.1 5 Sudoeste 8 Norte 0 963.1 -0.2 54
2019-06-22 03:00:00 18.4 6 Oeste 9 Oeste 0 963 -0.4 48
2019-06-22 02:00:00 19 4 Sudeste 8 Sudeste 0 963.1 -0.2 46
2019-06-22 01:00:00 21.3 5 Sur 7 Sudeste 0 963.3 0.7 39
2019-06-22 00:00:00 23 4 Sudeste 8 Sudeste 0 963.4 1 39
2019-06-21 23:00:00 24.6 2 Sudoeste 9 Sudoeste 0 963.3 1.4 31
2019-06-21 22:00:00 26.2 6 Sudoeste 20 Sudoeste 0 962.6 0.6 28
2019-06-21 21:00:00 28.1 10 Oeste 17 Sudoeste 0 962.4 0.1 23
2019-06-21 20:00:00 30 13 Oeste 19 Oeste 0 961.9 -0.6 20
2019-06-21 19:00:00 30.8 7 Oeste 27 Norte 0 962 -0.9 16
2019-06-21 18:00:00 30.6 7 Sudoeste 20 Noroeste 0 962.3 -1.3 15
2019-06-21 17:00:00 29.8 6 Nordeste 23 Noroeste 0 962.5 -1.5 17
2019-06-21 16:00:00 28.9 7 Noroeste 20 Noroeste 0 962.9 -1.5 19
2019-06-21 15:00:00 27.5 9 Noroeste 25 Noroeste 0 963.6 -0.9 28
2019-06-21 14:00:00 26.4 7 Sudoeste 24 Oeste 0 964 -0.8 31
2019-06-21 13:00:00 24.8 8 Sudoeste 27 Oeste 0 964.4 -0.4 38
2019-06-21 12:00:00 23.1 7 Oeste 17 Oeste 0 964.5 0.1 43
2019-06-21 11:00:00 20.7 8 Oeste 16 Oeste 0 964.8 0.8 50
2019-06-21 10:00:00 18.9 7 Oeste 13 Sur 0 964.8 1.2 55
2019-06-21 09:00:00 17.1 7 Sur 14 Sur 0 964.4 1.3 62
2019-06-21 08:00:00 15.5 5 Sudoeste 15 Sur 0 964 1 68
2019-06-21 07:00:00 14.3 5 Oeste 10 Oeste 0 963.6 0.6 72
2019-06-21 06:00:00 15.4 7 Nordeste 22 Sudoeste 0 963.1 0 65
2019-06-21 05:00:00 16.6 11 Sudoeste 18 Sudoeste 0 963 0 62
2019-06-21 04:00:00 17.5 5 Nordeste 28 Oeste 0 963 0.1 58
2019-06-21 03:00:00 18.6 14 Oeste 27 Sudoeste 0 963.1 0.9 54
2019-06-21 02:00:00 19.6 15 Sudoeste 24 Sudoeste 0 963 1.2 50
2019-06-21 01:00:00 20.5 11 Oeste 24 Oeste 0 962.9 1.7 46
2019-06-21 00:00:00 21.8 14 Oeste 32 Oeste 0 962.2 1.2 42
2019-06-20 23:00:00 23.1 13 Oeste 26 Oeste 0 961.8 0.8 34
2019-06-20 22:00:00 24.1 12 Oeste 23 Sudoeste 0 961.2 0.5 30
2019-06-20 21:00:00 25.9 12 Oeste 27 Oeste 0 961 -0.2 29
2019-06-20 20:00:00 26.4 18 Oeste 31 Oeste 0 961 -0.1 32
2019-06-20 19:00:00 28.3 15 Oeste 32 Oeste 0 960.7 -1 29
2019-06-20 18:00:00 27.9 18 Oeste 31 Oeste 0 961.2 -0.9 30
2019-06-20 17:00:00 28.8 15 Oeste 32 Oeste 0 961.1 -1.6 27
2019-06-20 16:00:00 28.7 13 Oeste 26 Oeste 0 961.7 -1.4 26
2019-06-20 15:00:00 25.8 13 Oeste 31 Noroeste 0 962.1 -1 33
2019-06-20 14:00:00 26.5 12 Oeste 26 Oeste 0 962.7 -0.4 33
2019-06-20 13:00:00 25.4 13 Oeste 24 Oeste 0 963.1 -0.1 38
2019-06-20 12:00:00 25.5 5 Este 12 Oeste 0 963.1 -0.1 38
2019-06-20 11:00:00 23.3 4 Oeste 13 Oeste 0 963.1 -0.1 47
2019-06-20 10:00:00 22 4 Oeste 8 Oeste 0 963.2 0.2 51
2019-06-20 09:00:00 19.7 3 Norte 6 Nordeste 0 963.2 0.6 57
2019-06-20 08:00:00 16 0 Calma 5 Noroeste 0 963.2 0.5 66
2019-06-20 07:00:00 15.2 0 Calma 4 Sudoeste 0 963 0.1 68
2019-06-20 06:00:00 15.9 2 Nordeste 6 Nordeste 0 962.6 -0.6 67
2019-06-20 05:00:00 16.8 4 Sur 6 Sudoeste 0 962.7 -0.6 67
2019-06-20 04:00:00 18.1 6 Sudoeste 9 Sudoeste 0 962.9 -0.4 62
2019-06-20 03:00:00 16.8 2 Sudeste 5 Sur 0 963.2 -0.1 63
2019-06-20 02:00:00 18.5 3 Sur 7 Sudoeste 0 963.3 0.2 57
2019-06-20 01:00:00 19.8 4 Sur 5 Sur 0 963.3 0.3 52
2019-06-20 00:00:00 20.8 0 Calma 7 Sudoeste 0 963.3 0.3 48
2019-06-19 23:00:00 21.9 5 Sudoeste 12 Oeste 0 963.1 0 44
2019-06-19 22:00:00 23.1 9 Oeste 17 Noroeste 0 963 0 40
2019-06-19 21:00:00 24.8 11 Noroeste 24 Oeste 0 963 -0.4 32
2019-06-19 20:00:00 26.5 14 Oeste 31 Oeste 0 963.1 -0.6 30
2019-06-19 19:00:00 27.3 14 Oeste 30 Oeste 0 963 -1.5 28
2019-06-19 18:00:00 27.1 18 Noroeste 35 Oeste 0 963.4 -1.5 29
2019-06-19 17:00:00 26.9 15 Sudoeste 42 Oeste 0 963.7 -1.6 28
2019-06-19 16:00:00 26.3 15 Oeste 32 Oeste 0 964.5 -1 32
2019-06-19 15:00:00 26.5 15 Oeste 30 Oeste 0 964.9 -0.5 32
2019-06-19 14:00:00 24.3 12 Sudoeste 27 Oeste 0 965.3 0 38
2019-06-19 13:00:00 23 16 Oeste 27 Sudoeste 0 965.5 0.4 40
2019-06-19 12:00:00 22.5 10 Oeste 23 Sudoeste 0 965.4 0.4 48
2019-06-19 11:00:00 20.4 13 Oeste 25 Oeste 0 965.3 0.5 57
2019-06-19 10:00:00 19.9 8 Oeste 17 Oeste 0 965.1 0.5 60
2019-06-19 09:00:00 18.1 6 Oeste 14 Oeste 0 965 0.7 67
2019-06-19 08:00:00 17.4 5 Sudoeste 17 Sudoeste 0 964.8 0.9 67
2019-06-19 07:00:00 17.9 11 Oeste 21 Sudoeste 0 964.6 1 64
2019-06-19 06:00:00 18.1 11 Sudoeste 19 Sudoeste 0 964.3 0.5 60
2019-06-19 05:00:00 18.6 11 Sudoeste 20 Sudoeste 0 963.9 0.1 57
2019-06-19 04:00:00 19.3 10 Sudoeste 21 Oeste 0 963.6 -0.4 56
2019-06-19 03:00:00 20.1 11 Oeste 27 Oeste 0 963.8 -0.1 55
2019-06-19 02:00:00 20.8 14 Oeste 23 Oeste 0 963.8 0.2 56
2019-06-19 01:00:00 21.4 10 Oeste 27 Oeste 0 964 1.2 53
2019-06-19 00:00:00 22.5 13 Oeste 26 Noroeste 0 963.9 1.4 47
2019-06-18 23:00:00 23.3 10 Oeste 26 Oeste 0 963.6 1.4 44
2019-06-18 22:00:00 24.1 16 Oeste 37 Oeste 0 962.8 0.9 38
2019-06-18 21:00:00 26.4 21 Oeste 32 Oeste 0 962.5 0.5 32
2019-06-18 20:00:00 27.8 16 Oeste 30 Noroeste 0 962.2 -0.1 30
2019-06-18 19:00:00 28.4 17 Oeste 35 Oeste 0 961.9 -0.5 29
2019-06-18 18:00:00 29.1 19 Oeste 35 Oeste 0 962 -0.6 24
2019-06-18 17:00:00 29.1 19 Oeste 36 Oeste 0 962.3 -0.8 17
2019-06-18 16:00:00 30 15 Oeste 34 Oeste 0 962.4 -1.1 12
2019-06-18 15:00:00 29.6 15 Oeste 38 Sudoeste 0 962.6 -1 7
2019-06-18 14:00:00 28.7 16 Sudoeste 31 Oeste 0 963.1 -0.6 7
2019-06-18 13:00:00 27.8 10 Sudoeste 37 Sudoeste 0 963.5 -0.1 10
2019-06-18 12:00:00 26 15 Sudoeste 28 Sudoeste 0 963.6 -0.1 11
2019-06-18 11:00:00 24.5 15 Sudoeste 25 Sudoeste 0 963.7 0.6 13
2019-06-18 10:00:00 23.2 10 Sudoeste 19 Sudoeste 0 963.6 0.7 21
2019-06-18 09:00:00 22.3 8 Sudoeste 13 Sudoeste 0 963.7 1.2 23
2019-06-18 08:00:00 20.4 8 Sudoeste 17 Sur 0 963.1 0.8 24
2019-06-18 07:00:00 20 9 Sur 22 Sudoeste 0 962.9 0.4 20
2019-06-18 06:00:00 20.7 11 Sur 25 Sur 0 962.5 -0.1 15
2019-06-18 05:00:00 21.1 10 Sudoeste 18 Sudoeste 0 962.3 -0.4 19
2019-06-18 04:00:00 22.2 8 Sudoeste 15 Sudoeste 0 962.5 -0.3 23
2019-06-18 03:00:00 23 7 Sur 13 Sudoeste 0 962.6 0 21
2019-06-18 02:00:00 24.2 9 Sudoeste 25 Oeste 0 962.7 0.6 18
2019-06-18 01:00:00 25.4 12 Sudoeste 28 Oeste 0 962.8 1.1 17
2019-06-18 00:00:00 26.8 17 Sudoeste 28 Sudoeste 0 962.6 1.2 12
2019-06-17 23:00:00 27.8 14 Sudoeste 28 Sudoeste 0 962.1 0.8 10
2019-06-17 22:00:00 28.5 13 Sudoeste 24 Sudoeste 0 961.7 0.7 9
2019-06-17 21:00:00 30.9 13 Oeste 27 Oeste 0 961.4 -0.2 10
2019-06-17 20:00:00 31.8 13 Sur 31 Sudoeste 0 961.3 -0.9 9
2019-06-17 19:00:00 32.7 12 Sudoeste 31 Sudoeste 0 961 -1.9 9
2019-06-17 18:00:00 33 16 Sudoeste 31 Sudoeste 0 961.6 -2.1 10
2019-06-17 17:00:00 32.9 8 Sudoeste 31 Sudoeste 0 962.2 -2.4 12
2019-06-17 16:00:00 31.5 13 Sur 30 Sudoeste 0 962.9 -2.4 12
2019-06-17 15:00:00 30.5 13 Sudoeste 28 Sudoeste 0 963.7 -2 14
2019-06-17 14:00:00 29.9 11 Sudoeste 22 Sudoeste 0 964.6 -1.3 16
2019-06-17 13:00:00 28.3 8 Sudoeste 19 Sur 0 965.3 -0.9 17
2019-06-17 12:00:00 27.4 8 Sur 20 Noroeste 0 965.7 -0.4 17
2019-06-17 11:00:00 25.4 7 Oeste 13 Sudoeste 0 965.9 -0.1 20
2019-06-17 10:00:00 23.6 4 Sudoeste 16 Sur 0 966.2 0.5 25
2019-06-17 09:00:00 21.2 4 Nordeste 7 Nordeste 0 966.1 0.6 33
2019-06-17 08:00:00 18.8 2 Noroeste 8 Norte 0 966 0.6 40
2019-06-17 07:00:00 17.8 3 Noroeste 18 Sur 0 965.7 0.2 42
2019-06-17 06:00:00 19.2 7 Sudoeste 19 Sudoeste 0 965.5 0.3 35
2019-06-17 05:00:00 18.5 4 Norte 15 Sudoeste 0 965.4 0.3 33
2019-06-17 04:00:00 20.5 9 Oeste 24 Sur 0 965.5 0.3 29
2019-06-17 03:00:00 21.7 13 Sudoeste 30 Sudoeste 0 965.2 0 26
2019-06-17 02:00:00 22.1 9 Sur 17 Sudoeste 0 965.1 0.3 25
2019-06-17 01:00:00 21.8 2 Nordeste 13 Sudoeste 0 965.2 1.1 25
2019-06-17 00:00:00 23.6 6 Sur 13 Sur 0 965.2 1.6 22
2019-06-16 23:00:00 22.7 3 Sur 6 Sudeste 0 964.8 1.3 23
2019-06-16 22:00:00 26.4 4 Sudoeste 20 Noroeste 0 964.1 0.8 16
2019-06-16 21:00:00 30.4 5 Sudoeste 19 Norte 0 963.6 -0.1 12
2019-06-16 20:00:00 30.1 8 Norte 25 Noroeste 0 963.5 -0.6 13
2019-06-16 19:00:00 30.6 17 Noroeste 34 Sur 0 963.3 -1.5 12
2019-06-16 18:00:00 31.9 7 Oeste 28 Oeste 0 963.7 -1.2 11
2019-06-16 17:00:00 31.2 13 Oeste 25 Oeste 0 964.1 -1.2 10
2019-06-16 16:00:00 30.9 9 Oeste 22 Sur 0 964.8 -0.8 8
2019-06-16 15:00:00 29.8 10 Sur 22 Sudeste 0 964.9 -1.1 12
2019-06-16 14:00:00 30.3 9 Sur 18 Sur 0 965.3 -0.9 11
2019-06-16 13:00:00 29.1 8 Sur 17 Sur 0 965.6 -0.7 14
2019-06-16 12:00:00 26.7 6 Noroeste 13 Norte 0 966 -0.2 20
2019-06-16 11:00:00 23.4 3 Noroeste 9 Sudoeste 0 966.2 0.1 26
2019-06-16 10:00:00 20.6 2 Sudoeste 6 Nordeste 0 966.3 0.6 32
2019-06-16 09:00:00 18 3 Nordeste 6 Nordeste 0 966.2 0.8 39
2019-06-16 08:00:00 13.8 0 Calma 3 Nordeste 0 966.1 0.8 49
2019-06-16 07:00:00 12.4 0 Calma 7 Sudeste 0 965.7 0.2 57
2019-06-16 06:00:00 12.6 2 Sudoeste 6 Oeste 0 965.4 -0.5 55
2019-06-16 05:00:00 14.4 5 Sudoeste 8 Sudoeste 0 965.3 -1.1 48
2019-06-16 04:00:00 13.1 4 Oeste 6 Oeste 0 965.5 -1.1 48
2019-06-16 03:00:00 13.3 2 Sudeste 4 Este 0 965.9 -0.9 48
2019-06-16 02:00:00 16.1 3 Sur 6 Sur 0 966.4 -0.2 42
2019-06-16 01:00:00 15.9 2 Sudoeste 6 Sur 0 966.6 0.4 35
2019-06-16 00:00:00 18.9 6 Sudeste 8 Sudeste 0 966.8 0.9 27
2019-06-15 23:00:00 20.5 2 Sudoeste 12 Sudoeste 0 966.6 1 23
2019-06-15 22:00:00 22.6 7 Sur 13 Oeste 0 966.2 0.6 22
2019-06-15 21:00:00 25.6 10 Oeste 14 Oeste 0 965.9 -0.3 20
2019-06-15 20:00:00 26.6 8 Noroeste 19 Noroeste 0 965.6 -1 18
2019-06-15 19:00:00 27 6 Noroeste 22 Oeste 0 965.6 -1.3 18
2019-06-15 18:00:00 26.4 8 Noroeste 19 Noroeste 0 966.2 -1.3 18
2019-06-15 17:00:00 26 6 Noroeste 19 Oeste 0 966.6 -1.2 17
2019-06-15 16:00:00 25 7 Sur 22 Noroeste 0 966.9 -1.3 21
2019-06-15 15:00:00 24.3 8 Oeste 27 Noroeste 0 967.5 -0.8 21
2019-06-15 14:00:00 23.3 10 Norte 23 Oeste 0 967.8 -0.5 25
2019-06-15 13:00:00 22.2 8 Oeste 20 Oeste 0 968.2 0 27
2019-06-15 12:00:00 20.9 9 Sudoeste 20 Oeste 0 968.3 0.4 31
2019-06-15 11:00:00 19.6 6 Sudoeste 14 Oeste 0 968.3 0.8 35
2019-06-15 10:00:00 18.9 3 Sur 10 Sudoeste 0 968.2 1 38
2019-06-15 09:00:00 16.3 6 Sudoeste 12 Sudoeste 0 967.9 1 47
2019-06-15 08:00:00 13.6 6 Sur 9 Sudeste 0 967.5 0.7 56
2019-06-15 07:00:00 10.2 2 Sur 9 Sudoeste 0 967.2 0.4 66
2019-06-15 06:00:00 11.2 3 Este 8 Sur 0 966.9 0.1 62
2019-06-15 05:00:00 12.3 0 Calma 5 Sur 0 966.8 0 59
2019-06-15 04:00:00 13.4 4 Sur 12 Oeste 0 966.8 0.2 54
2019-06-15 03:00:00 14.3 9 Oeste 16 Noroeste 0 966.8 0.4 51
2019-06-15 02:00:00 15.1 8 Oeste 19 Oeste 0 966.8 0.9 47
2019-06-15 01:00:00 16 9 Oeste 21 Oeste 0 966.6 1.4 45
2019-06-15 00:00:00 16.6 9 Oeste 33 Oeste 0 966.4 1.9 42
2019-06-14 23:00:00 17.6 14 Oeste 29 Oeste 0 965.9 1.8 36
2019-06-14 22:00:00 18.2 16 Oeste 35 Oeste 0 965.2 1.7 33
2019-06-14 21:00:00 20.1 19 Oeste 38 Oeste 0 964.5 1.1 29
2019-06-14 20:00:00 21.4 21 Oeste 37 Sudoeste 0 964.1 0.8 28
2019-06-14 19:00:00 22.5 19 Oeste 41 Noroeste 0 963.5 0 25
2019-06-14 18:00:00 22.5 18 Oeste 41 Oeste 0 963.4 0 24
2019-06-14 17:00:00 22 22 Oeste 42 Oeste 0 963.3 -0.1 24
2019-06-14 16:00:00 22.4 20 Oeste 40 Oeste 0 963.5 0.1 26
2019-06-14 15:00:00 21.8 22 Oeste 40 Noroeste 0 963.4 0.2 27
2019-06-14 14:00:00 21.3 15 Oeste 41 Oeste 0 963.4 0.6 27
2019-06-14 13:00:00 20.8 15 Sudoeste 32 Sudoeste 0 963.4 0.7 29
2019-06-14 12:00:00 19.5 11 Oeste 30 Oeste 0 963.2 1.2 32
2019-06-14 11:00:00 18.5 11 Sudoeste 22 Oeste 0 962.8 1.5 35
2019-06-14 10:00:00 16.5 10 Oeste 18 Oeste 0 962.7 1.7 47
2019-06-14 09:00:00 15.4 7 Noroeste 17 Sudoeste 0 962 1.5 50
2019-06-14 08:00:00 14.4 3 Noroeste 9 Este 0 961.3 1 55
2019-06-14 07:00:00 12.8 5 Sudeste 27 Sudoeste 0 961 0.8 57
2019-06-14 06:00:00 13.8 14 Sudoeste 24 Sudoeste 0 960.5 0.7 53
2019-06-14 05:00:00 15 17 Sudoeste 23 Sudoeste 0 960.3 0.8 48
2019-06-14 04:00:00 16.3 5 Sur 16 Sudoeste 0 960.2 0.9 40
2019-06-14 03:00:00 17.6 10 Sudoeste 17 Sudoeste 0 959.8 0.8 32
2019-06-14 02:00:00 18.9 10 Oeste 17 Sudoeste 0 959.5 1 27
2019-06-14 01:00:00 19.9 6 Oeste 21 Oeste 0 959.3 1.5 25
2019-06-14 00:00:00 21.1 12 Oeste 22 Oeste 0 959 1.9 23
2019-06-13 23:00:00 22 9 Sudoeste 20 Oeste 0 958.5 2.1 22
2019-06-13 22:00:00 23 14 Oeste 28 Oeste 0 957.8 1.6 23
2019-06-13 21:00:00 25.7 16 Oeste 27 Oeste 0 957.1 0.9 20
2019-06-13 20:00:00 27.2 19 Noroeste 32 Oeste 0 956.4 -0.3 18
2019-06-13 19:00:00 28.2 19 Noroeste 30 Noroeste 0 956.2 -1.1 15
2019-06-13 18:00:00 28 21 Noroeste 33 Noroeste 0 956.2 -1.7 15
2019-06-13 17:00:00 29 9 Sudoeste 26 Norte 0 956.7 -1.8 14
2019-06-13 16:00:00 28 12 Oeste 33 Sudoeste 0 957.3 -1.5 14
2019-06-13 15:00:00 27.1 11 Sudoeste 26 Sudoeste 0 957.9 -1.4 17
2019-06-13 14:00:00 26.2 9 Sudoeste 26 Sudoeste 0 958.5 -1 14
2019-06-13 13:00:00 25.1 10 Oeste 24 Sudoeste 0 958.8 -0.9 14
2019-06-13 12:00:00 23.7 6 Sudoeste 18 Sudoeste 0 959.3 -0.2 21
2019-06-13 11:00:00 21.2 7 Sur 14 Sur 0 959.5 0.5 28
2019-06-13 10:00:00 18.7 4 Sudoeste 11 Norte 0 959.7 1 32
2019-06-13 09:00:00 16.6 4 Norte 9 Norte 0 959.5 1.3 42
2019-06-13 08:00:00 14.7 3 Noroeste 10 Oeste 0 959 1.1 48
2019-06-13 07:00:00 13.4 0 Calma 9 Sudoeste 0 958.7 0.9 52
2019-06-13 06:00:00 15 6 Sudoeste 17 Sudoeste 0 958.2 0.2 45
2019-06-13 05:00:00 15.8 11 Sudoeste 17 Sudoeste 0 957.9 -0.1 41
2019-06-13 04:00:00 16.2 4 Sur 13 Sur 0 957.8 -0.2 32
2019-06-13 03:00:00 15.7 0 Calma 8 Sur 0 958 0.1 26
2019-06-13 02:00:00 17 5 Sur 15 Noroeste 0 958 0.4 26
2019-06-13 01:00:00 20.2 6 Sudoeste 14 Sudoeste 0 958 0.5 15
2019-06-13 00:00:00 20.8 7 Sur 11 Sur 0 957.9 0.6 14
2019-06-12 23:00:00 21.2 6 Sur 10 Sudoeste 0 957.6 0.2 14
2019-06-12 22:00:00 23 5 Sudoeste 15 Noroeste 0 957.5 -0.1 12
2019-06-12 21:00:00 26.3 9 Noroeste 19 Noroeste 0 957.3 -0.8 10
2019-06-12 20:00:00 27.4 12 Oeste 28 Oeste 0 957.4 -1.2 10
2019-06-12 19:00:00 27.9 12 Noroeste 32 Oeste 0 957.6 -1.3 11
2019-06-12 18:00:00 28.2 10 Oeste 28 Oeste 0 958.1 -1.5 10
2019-06-12 17:00:00 27.7 17 Oeste 31 Oeste 0 958.6 -1.7 9
2019-06-12 16:00:00 27.2 16 Oeste 28 Sudoeste 0 958.9 -2 8
2019-06-12 15:00:00 26.9 9 Oeste 31 Oeste 0 959.6 -1.6 10
2019-06-12 14:00:00 25.8 10 Norte 22 Noroeste 0 960.3 -1.2 13
2019-06-12 13:00:00 24.8 10 Noroeste 24 Noroeste 0 960.9 -0.9 14
2019-06-12 12:00:00 24 6 Noroeste 14 Noroeste 0 961.2 -0.4 13
2019-06-12 11:00:00 21.7 3 Sudeste 9 Este 0 961.5 0.2 24
2019-06-12 10:00:00 18.2 4 Noroeste 9 Noroeste 0 961.8 0.8 25
2019-06-12 09:00:00 15.3 4 Noroeste 8 Noroeste 0 961.6 0.8 30
2019-06-12 08:00:00 12.7 3 Sudoeste 6 Sur 0 961.3 0.6 40
2019-06-12 07:00:00 9.7 2 Sur 5 Sur 0 961 0.1 44
2019-06-12 06:00:00 10.8 3 Sudoeste 9 Sudeste 0 960.8 -0.4 38
2019-06-12 05:00:00 11.6 4 Sur 8 Oeste 0 960.7 -0.8 34
2019-06-12 04:00:00 12.3 4 Sudoeste 8 Sudoeste 0 960.9 -0.7 33
2019-06-12 03:00:00 13.4 2 Oeste 9 Sudeste 0 961.2 -0.4 27
2019-06-12 02:00:00 14.5 4 Sudoeste 7 Sudoeste 0 961.5 0 25
2019-06-12 01:00:00 15.7 2 Sudoeste 7 Sudeste 0 961.6 1 23
2019-06-12 00:00:00 17.8 5 Este 18 Nordeste 0 961.6 1.5 19
2019-06-11 23:00:00 18.7 9 Nordeste 25 Nordeste 0 961.5 2 17
2019-06-11 22:00:00 20.7 15 Nordeste 25 Nordeste 0 960.6 1.4 16
2019-06-11 21:00:00 23.6 18 Nordeste 33 Norte 0 960.1 1 15
2019-06-11 20:00:00 25.1 20 Norte 32 Norte 0 959.5 0.5 15
2019-06-11 19:00:00 25.6 20 Nordeste 39 Nordeste 0 959.2 0.4 18
2019-06-11 18:00:00 25.2 20 Norte 41 Nordeste 0 959.1 0.1 21
2019-06-11 17:00:00 26.4 22 Nordeste 40 Nordeste 0 959 -0.4 21
2019-06-11 16:00:00 24.7 5 Noroeste 20 Noroeste 0 958.8 -0.8 23
2019-06-11 15:00:00 25.7 10 Noroeste 24 Noroeste 0 959 -0.9 22
2019-06-11 14:00:00 24.7 6 Norte 24 Noroeste 0 959.4 -0.6 25
2019-06-11 13:00:00 23.2 10 Noroeste 21 Noroeste 0 959.6 -0.4 29
2019-06-11 12:00:00 21.7 4 Noroeste 18 Oeste 0 959.9 0.1 33
2019-06-11 11:00:00 19.3 13 Sudoeste 23 Sudoeste 0 960 0.2 39
2019-06-11 10:00:00 17.4 8 Sudoeste 15 Sudoeste 0 960 0.3 43
2019-06-11 09:00:00 15.7 6 Oeste 16 Oeste 0 959.8 0 47
2019-06-11 08:00:00 14.3 3 Sudoeste 18 Oeste 0 959.8 -0.2 50
2019-06-11 07:00:00 13.3 9 Sur 16 Sudeste 0 959.7 -0.9 55
2019-06-11 06:00:00 13.9 9 Oeste 28 Sudoeste 0 959.8 -1 50
2019-06-11 05:00:00 15.1 8 Sudoeste 22 Oeste 0 960 -1.3 45
2019-06-11 04:00:00 16.6 14 Oeste 25 Oeste 0 960.6 -0.9 41
2019-06-11 03:00:00 17.8 13 Sudoeste 29 Sudoeste 0 960.8 -0.8 36
2019-06-11 02:00:00 19 3 Sur 19 Oeste 0 961.3 -0.3 32
2019-06-11 01:00:00 20.3 8 Sudoeste 26 Oeste 0 961.5 0.3 27
2019-06-11 00:00:00 21.3 8 Sudoeste 19 Sudoeste 0 961.6 0.5 19
2019-06-10 23:00:00 22.4 9 Oeste 17 Oeste 0 961.6 0.4 17
2019-06-10 22:00:00 23.5 10 Oeste 24 Oeste 0 961.2 -0.2 14
2019-06-10 21:00:00 26 13 Oeste 30 Oeste 0 961.1 -0.7 13
2019-06-10 20:00:00 27.3 20 Oeste 35 Oeste 0 961.2 -1.3 12
2019-06-10 19:00:00 28.2 17 Oeste 34 Oeste 0 961.4 -1.6 14
2019-06-10 18:00:00 28.4 9 Oeste 31 Oeste 0 961.8 -1.9 15
2019-06-10 17:00:00 27.9 10 Sudoeste 27 Oeste 0 962.5 -2 17
2019-06-10 16:00:00 26.8 10 Sudoeste 26 Oeste 0 963 -2 22
2019-06-10 15:00:00 25.9 10 Oeste 28 Noroeste 0 963.7 -1.5 23
2019-06-10 14:00:00 24.8 14 Noroeste 24 Noroeste 0 964.5 -1.1 22
2019-06-10 13:00:00 23.3 5 Sudoeste 21 Oeste 0 965 -0.6 28
2019-06-10 12:00:00 22 8 Oeste 17 Noroeste 0 965.2 -0.1 34
2019-06-10 11:00:00 20.3 9 Oeste 17 Oeste 0 965.6 0.7 42
2019-06-10 10:00:00 18.3 4 Oeste 13 Oeste 0 965.6 0.6 45
2019-06-10 09:00:00 17 7 Oeste 15 Oeste 0 965.3 0.7 49
2019-06-10 08:00:00 15.5 5 Sur 10 Sur 0 964.9 0.1 54
2019-06-10 07:00:00 13.6 3 Sudoeste 11 Oeste 0 965 -0.4 60
2019-06-10 06:00:00 14.3 9 Sudoeste 15 Oeste 0 964.6 -1 57
2019-06-10 05:00:00 15.3 10 Oeste 17 Oeste 0 964.8 -0.8 53
2019-06-10 04:00:00 15.9 5 Sudoeste 16 Oeste 0 965.4 -0.3 48
2019-06-10 03:00:00 16.8 7 Sudoeste 15 Sudoeste 0 965.6 0.2 44
2019-06-10 02:00:00 17.8 9 Oeste 18 Oeste 0 965.6 0.5 40
2019-06-10 01:00:00 19.2 10 Oeste 22 Oeste 0 965.7 1.3 36
2019-06-10 00:00:00 20.3 14 Oeste 32 Oeste 0 965.4 1.5 32
2019-06-09 23:00:00 21.3 19 Oeste 39 Oeste 0 965.1 1.3 31
2019-06-09 22:00:00 22.5 17 Oeste 33 Oeste 0 964.4 0.8 27
2019-06-09 21:00:00 24.8 13 Oeste 29 Oeste 0 963.9 0 22
2019-06-09 20:00:00 26.1 18 Oeste 33 Oeste 0 963.8 -0.4 20
2019-06-09 19:00:00 27 15 Oeste 34 Noroeste 0 963.6 -1.2 19
2019-06-09 18:00:00 26.9 16 Oeste 32 Oeste 0 963.9 -1.3 19
2019-06-09 17:00:00 26.5 13 Oeste 33 Oeste 0 964.2 -1.6 19
2019-06-09 16:00:00 26.1 18 Oeste 30 Oeste 0 964.8 -1.5 18
2019-06-09 15:00:00 25.3 15 Sudoeste 31 Oeste 0 965.2 -1.2 15
2019-06-09 14:00:00 24.4 17 Sudoeste 32 Oeste 0 965.8 -0.8 13
2019-06-09 13:00:00 23 14 Oeste 29 Oeste 0 966.3 -0.2 15
2019-06-09 12:00:00 21.5 12 Oeste 22 Noroeste 0 966.4 0.1 26
2019-06-09 11:00:00 19.5 10 Oeste 20 Oeste 0 966.6 0.6 34
2019-06-09 10:00:00 18.2 8 Sudoeste 16 Sudoeste 0 966.5 0.9 36
2019-06-09 09:00:00 17.2 6 Sudoeste 14 Oeste 0 966.3 0.8 42
2019-06-09 08:00:00 15.5 5 Sudoeste 17 Sudoeste 0 966 0.5 46
2019-06-09 07:00:00 15.1 6 Sur 18 Sur 0 965.6 0.2 48
2019-06-09 06:00:00 15.9 12 Sudoeste 17 Sur 0 965.5 0.1 45
2019-06-09 05:00:00 16 4 Sur 14 Oeste 0 965.5 0.2 49
2019-06-09 04:00:00 16.9 7 Oeste 11 Oeste 0 965.4 0.3 37
2019-06-09 03:00:00 15.5 0 Calma 5 Sudeste 0 965.4 0.4 33
2019-06-09 02:00:00 16.7 3 Sur 11 Oeste 0 965.3 0.6 28
2019-06-09 01:00:00 18 2 Oeste 6 Norte 0 965.1 1 24
2019-06-09 00:00:00 21.6 5 Sudoeste 9 Sudoeste 0 965 1.2 17
2019-06-08 23:00:00 22.2 4 Sudoeste 8 Sudoeste 0 964.7 1 19
2019-06-08 22:00:00 23.5 4 Sur 13 Noroeste 0 964.1 0.3 18
2019-06-08 21:00:00 26.3 11 Noroeste 20 Noroeste 0 963.8 -0.3 13
2019-06-08 20:00:00 28 12 Noroeste 26 Noroeste 0 963.7 -1 12
2019-06-08 19:00:00 28.6 13 Oeste 27 Noroeste 0 963.8 -1.1 12
2019-06-08 18:00:00 28.9 13 Noroeste 26 Oeste 0 964.1 -1.1 12
2019-06-08 17:00:00 27 17 Oeste 33 Oeste 0 964.7 -1.1 13
2019-06-08 16:00:00 28.4 11 Sudoeste 30 Sudoeste 0 964.9 -1.1 11
2019-06-08 15:00:00 28 9 Sudoeste 32 Sur 0 965.2 -1 12
2019-06-08 14:00:00 27.1 13 Sur 30 Sur 0 965.8 -0.7 12
2019-06-08 13:00:00 26.5 10 Sudoeste 23 Sudoeste 0 966 -0.7 13
2019-06-08 12:00:00 24.3 4 Noroeste 11 Norte 0 966.2 -0.6 18
2019-06-08 11:00:00 23 4 Norte 10 Nordeste 0 966.5 -0.4 19
2019-06-08 10:00:00 20.5 4 Nordeste 9 Este 0 966.7 -0.1 23
2019-06-08 09:00:00 16.8 4 Sudoeste 6 Sudoeste 0 966.8 0 33
2019-06-08 08:00:00 11.7 2 Norte 4 Norte 0 966.9 -0.1 47
2019-06-08 07:00:00 9.9 0 Calma 4 Sur 0 966.8 -0.5 58
2019-06-08 06:00:00 10.1 3 Sudeste 4 Sudeste 0 966.8 -0.6 53
2019-06-08 05:00:00 11.1 3 Sudoeste 5 Sur 0 967 -0.5 53
2019-06-08 04:00:00 10.3 0 Calma 5 Sudeste 0 967.3 -0.2 48
2019-06-08 03:00:00 12.3 4 Sur 6 Sudoeste 0 967.4 -0.1 44
2019-06-08 02:00:00 12.9 2 Sudeste 6 Sudoeste 0 967.5 0.4 40
2019-06-08 01:00:00 14.9 3 Sur 5 Sudoeste 0 967.5 1.1 35
2019-06-08 00:00:00 16.2 4 Sur 7 Sudoeste 0 967.5 1.4 31
2019-06-07 23:00:00 18.1 4 Oeste 8 Sudoeste 0 967.1 1.3 25
2019-06-07 22:00:00 19.7 6 Oeste 14 Oeste 0 966.4 0.8 22
2019-06-07 21:00:00 23 9 Oeste 22 Oeste 0 966.1 0.5 18
2019-06-07 20:00:00 24 11 Oeste 23 Oeste 0 965.8 0 17
2019-06-07 19:00:00 24.4 9 Oeste 23 Noroeste 0 965.6 -0.3 15
2019-06-07 18:00:00 24.2 8 Noroeste 23 Noroeste 0 965.6 -0.2 15
2019-06-07 17:00:00 23.6 7 Noroeste 27 Noroeste 0 965.8 -0.2 16
2019-06-07 16:00:00 23 10 Oeste 26 Noroeste 0 965.9 0 18
2019-06-07 15:00:00 22.1 10 Noroeste 29 Oeste 0 965.8 0.2 17
2019-06-07 14:00:00 20.8 10 Noroeste 27 Oeste 0 966 0.5 22
2019-06-07 13:00:00 19.6 12 Oeste 29 Noroeste 0 965.9 0.6 28
2019-06-07 12:00:00 17.9 13 Noroeste 28 Oeste 0 965.6 1 32
2019-06-07 11:00:00 16.2 12 Noroeste 27 Noroeste 0 965.5 1.6 43
2019-06-07 10:00:00 14.6 10 Noroeste 24 Oeste 0 965.3 2.2 49
2019-06-07 09:00:00 13.6 12 Noroeste 22 Noroeste 0 964.6 2.3 57
2019-06-07 08:00:00 12.5 10 Oeste 20 Oeste 0 963.9 2.2 59
2019-06-07 07:00:00 11.5 15 Oeste 32 Oeste 0 963.1 1.8 60
2019-06-07 06:00:00 12.4 16 Oeste 29 Oeste 0 962.3 1.7 62
2019-06-07 05:00:00 13.1 16 Oeste 32 Oeste 0 961.7 1.8 59
2019-06-07 04:00:00 13.1 14 Oeste 40 Oeste 0 961.3 1.6 61
2019-06-07 03:00:00 15.3 22 Oeste 46 Oeste 0 960.6 1.2 71
2019-06-07 02:00:00 17.9 13 Oeste 45 Sudoeste 0 959.9 1.1 54
2019-06-07 01:00:00 18.6 13 Oeste 42 Sudoeste 0 959.7 1.6 48
2019-06-07 00:00:00 19 19 Oeste 41 Oeste 0 959.4 1.6 43
2019-06-06 23:00:00 19.6 14 Oeste 36 Oeste 0 958.8 1.3 39
2019-06-06 22:00:00 20.2 14 Oeste 47 Oeste 0 958.1 0.5 34
2019-06-06 21:00:00 22.3 23 Oeste 39 Oeste 0 957.8 -0.4 28
2019-06-06 20:00:00 24.2 18 Oeste 30 Oeste 0 957.5 -1.4 21
2019-06-06 19:00:00 25.3 13 Oeste 32 Oeste 0 957.6 -2.2 17
2019-06-06 18:00:00 25.5 14 Oeste 33 Oeste 0 958.2 -2.3 16
2019-06-06 17:00:00 24.6 17 Oeste 33 Oeste 0 958.9 -2.4 14
2019-06-06 16:00:00 24.1 16 Oeste 39 Oeste 0 959.8 -1.8 16
2019-06-06 15:00:00 22.7 14 Sudoeste 32 Sudoeste 0 960.5 -1.5 18
2019-06-06 14:00:00 21.6 17 Oeste 36 Oeste 0 961.3 -1.1 21
2019-06-06 13:00:00 20.7 13 Sudoeste 27 Oeste 0 961.6 -1.2 25
2019-06-06 12:00:00 19.1 6 Oeste 20 Oeste 0 962 -0.9 29
2019-06-06 11:00:00 17.3 13 Oeste 20 Oeste 0 962.4 -0.7 32
2019-06-06 10:00:00 15.7 11 Sudoeste 18 Sudoeste 0 962.8 0 41
2019-06-06 09:00:00 14.1 6 Sudoeste 17 Sudoeste 0 962.9 0.3 46
2019-06-06 08:00:00 12.8 4 Sudoeste 13 Sur 0 963.1 0.5 50
2019-06-06 07:00:00 11.2 5 Sudoeste 11 Sudoeste 0 962.8 0 54
2019-06-06 06:00:00 12 5 Sudoeste 18 Sudoeste 0 962.6 -0.3 50
2019-06-06 05:00:00 12.5 7 Sudoeste 14 Sudoeste 0 962.6 -0.5 46
2019-06-06 04:00:00 12.9 4 Sur 9 Sudoeste 0 962.8 -0.2 44
2019-06-06 03:00:00 13.7 6 Sudoeste 9 Oeste 0 962.9 0 41
2019-06-06 02:00:00 14.6 6 Oeste 14 Oeste 0 963.1 0.6 37
2019-06-06 01:00:00 16.1 9 Oeste 21 Oeste 0 963 0.8 34
2019-06-06 00:00:00 17.2 12 Sudoeste 26 Sudoeste 0 962.9 0.9 32
2019-06-05 23:00:00 17.8 10 Sudoeste 23 Oeste 0 962.5 0.8 29
2019-06-05 22:00:00 19 12 Oeste 22 Sudoeste 0 962.2 0.4 26
2019-06-05 21:00:00 21.1 13 Oeste 29 Oeste 0 962 0 22
2019-06-05 20:00:00 22.4 12 Oeste 28 Noroeste 0 961.7 -0.7 20
2019-06-05 19:00:00 22.9 13 Noroeste 33 Oeste 0 961.8 -0.8 19
2019-06-05 18:00:00 22.3 15 Noroeste 33 Oeste 0 962 -0.9 21
2019-06-05 17:00:00 21.6 17 Oeste 39 Noroeste 0 962.4 -0.6 24
2019-06-05 16:00:00 21.3 21 Oeste 42 Noroeste 0 962.6 -0.6 24
2019-06-05 15:00:00 22 19 Noroeste 39 Noroeste 0 962.9 -0.1 24
2019-06-05 14:00:00 20.7 20 Oeste 38 Noroeste 0 963 0 25
2019-06-05 13:00:00 19.9 16 Oeste 32 Oeste 0 963.2 0.5 28
2019-06-05 12:00:00 18.7 17 Oeste 34 Oeste 0 963 0.8 33
2019-06-05 11:00:00 17 19 Oeste 37 Oeste 0 963 1.5 38
2019-06-05 10:00:00 15.3 19 Oeste 34 Oeste 0 962.7 1.6 49
2019-06-05 09:00:00 13.9 16 Oeste 31 Oeste 0 962.2 1.5 54
2019-06-05 08:00:00 12.4 18 Oeste 30 Oeste 0 961.5 1.1 61
2019-06-05 07:00:00 11.4 16 Oeste 29 Oeste 0 961.1 0.8 66
2019-06-05 06:00:00 11.9 9 Oeste 26 Oeste 0 960.7 0.4 63
2019-06-05 05:00:00 12.5 14 Oeste 32 Oeste 0 960.4 0.3 61
2019-06-05 04:00:00 13.2 18 Oeste 43 Oeste 0 960.3 0.4 56
2019-06-05 03:00:00 14.5 15 Oeste 32 Oeste 0 960.3 0.7 47
2019-06-05 02:00:00 16.5 19 Oeste 35 Oeste 0 960.1 1 48
2019-06-05 01:00:00 17.8 19 Oeste 34 Oeste 0 959.9 1.5 46
2019-06-05 00:00:00 19 21 Oeste 31 Oeste 0 959.6 1.8 48
2019-06-04 23:00:00 20.3 18 Oeste 35 Oeste 0 959.1 1.3 49
2019-06-04 22:00:00 21.8 17 Oeste 39 Noroeste 0 958.4 0.2 46
2019-06-04 21:00:00 23.8 21 Oeste 34 Oeste 0 957.8 -0.9 37
2019-06-04 20:00:00 26.1 22 Oeste 39 Oeste 0 957.8 -1.4 30
2019-06-04 19:00:00 27 21 Oeste 36 Oeste 0 958.2 -1.6 28
2019-06-04 18:00:00 27.3 17 Oeste 35 Oeste 0 958.7 -1.8 28
2019-06-04 17:00:00 27.2 22 Oeste 35 Oeste 0 959.2 -1.8 30
2019-06-04 16:00:00 27.6 14 Oeste 32 Sudoeste 0 959.8 -1.8 25
2019-06-04 15:00:00 27.3 14 Sudoeste 32 Oeste 0 960.5 -1.4 26
2019-06-04 14:00:00 26.1 15 Sudoeste 30 Sudoeste 0 961 -1.1 25
2019-06-04 13:00:00 24.8 17 Oeste 32 Oeste 0 961.6 -0.7 30
2019-06-04 12:00:00 23.4 18 Sudoeste 30 Sudoeste 0 961.9 -0.4 41
2019-06-04 11:00:00 22.5 12 Oeste 25 Oeste 0 962.1 0.2 53
2019-06-04 10:00:00 20.8 10 Oeste 21 Sudoeste 0 962.3 1 58
2019-06-04 09:00:00 19.3 9 Oeste 16 Oeste 0 962.3 1.2 64
2019-06-04 08:00:00 18.9 10 Oeste 15 Oeste 0 961.9 0.6 66
2019-06-04 07:00:00 18.2 4 Sur 8 Sudeste 0 961.3 0 66
2019-06-04 06:00:00 18.7 3 Noroeste 7 Oeste 0 961.1 -0.4 67
2019-06-04 05:00:00 19.6 3 Este 14 Sudoeste 0 961.3 -0.7 60
2019-06-04 04:00:00 20.7 4 Noroeste 15 Oeste 0 961.3 -1 51
2019-06-04 03:00:00 22.3 4 Noroeste 14 Sudoeste 0 961.5 -0.8 39
2019-06-04 02:00:00 23.6 4 Sudoeste 10 Sudoeste 0 962 0.2 32
2019-06-04 01:00:00 24.6 6 Oeste 15 Oeste 0 962.3 1 27
2019-06-04 00:00:00 25.8 7 Sudoeste 17 Oeste 0 962.3 1.1 23
2019-06-03 23:00:00 27.5 10 Sudoeste 20 Oeste 0 961.8 0.5 17
2019-06-03 22:00:00 28.9 10 Sudoeste 23 Oeste 0 961.3 -0.3 14
2019-06-03 21:00:00 31.6 12 Oeste 27 Oeste 0 961.2 -1.1 13
2019-06-03 20:00:00 33.4 11 Oeste 28 Oeste 0 961.3 -1.4 11
2019-06-03 19:00:00 34.1 14 Oeste 30 Oeste 0 961.6 -2 11
2019-06-03 18:00:00 34.2 17 Oeste 29 Oeste 0 962.3 -1.7 11
2019-06-03 17:00:00 34.6 10 Oeste 32 Noroeste 0 962.7 -1.9 10
2019-06-03 16:00:00 33.9 12 Oeste 29 Oeste 0 963.6 -1.5 11
2019-06-03 15:00:00 33.5 14 Sudoeste 26 Oeste 0 964 -1.5 10
2019-06-03 14:00:00 32.9 11 Oeste 24 Oeste 0 964.6 -1.1 12
2019-06-03 13:00:00 31.3 10 Oeste 19 Oeste 0 965.1 -0.6 12
2019-06-03 12:00:00 29.5 6 Oeste 19 Oeste 0 965.5 0 17
2019-06-03 11:00:00 27.9 6 Sudoeste 14 Sudoeste 0 965.7 0.7 21
2019-06-03 10:00:00 25.9 6 Sudoeste 16 Sudoeste 0 965.7 1.1 25
2019-06-03 09:00:00 23.7 10 Sudoeste 25 Sudoeste 0 965.5 1.2 27
2019-06-03 08:00:00 22 11 Sudoeste 19 Sudoeste 0 965 0.8 30
2019-06-03 07:00:00 21.6 4 Sur 9 Este 0 964.6 0.3 30
2019-06-03 06:00:00 22.5 5 Sudeste 15 Oeste 0 964.3 -0.1 28
2019-06-03 05:00:00 22.2 4 Sudoeste 14 Oeste 0 964.2 -0.4 28
2019-06-03 04:00:00 22.5 3 Oeste 6 Noroeste 0 964.3 -0.2 26
2019-06-03 03:00:00 24.3 4 Este 15 Oeste 0 964.4 0.1 23
2019-06-03 02:00:00 26.1 9 Sudoeste 15 Sudoeste 0 964.6 0.9 19
2019-06-03 01:00:00 26 5 Sur 11 Oeste 0 964.5 1.1 20
2019-06-03 00:00:00 25.1 6 Sur 32 Noroeste 0 964.3 0.9 26
2019-06-02 23:00:00 26.5 3 Sudeste 9 Sudoeste 0 963.7 0.5 21
2019-06-02 22:00:00 28.9 6 Sudoeste 8 Sudoeste 0 963.4 0.1 17
2019-06-02 21:00:00 31.5 5 Sudoeste 17 Noroeste 0 963.4 -0.1 14
2019-06-02 20:00:00 34.2 14 Noroeste 26 Noroeste 0 963.2 -0.5 11
2019-06-02 19:00:00 35.5 10 Oeste 23 Oeste 0 963.3 -1 10
2019-06-02 18:00:00 35.5 11 Oeste 23 Oeste 0 963.5 -1.5 10
2019-06-02 17:00:00 35.3 12 Oeste 27 Noroeste 0 963.7 -2.1 10
2019-06-02 16:00:00 35.2 4 Noroeste 22 Oeste 0 964.3 -2.1 11
2019-06-02 15:00:00 34.1 8 Oeste 21 Oeste 0 965 -1.6 13
2019-06-02 14:00:00 33 8 Oeste 17 Noroeste 0 965.8 -0.9 14
2019-06-02 13:00:00 31.7 6 Noroeste 20 Noroeste 0 966.4 -0.3 16
2019-06-02 12:00:00 30.2 7 Noroeste 17 Oeste 0 966.6 0.1 19
2019-06-02 11:00:00 28.1 4 Este 9 Nordeste 0 966.7 0.6 21
2019-06-02 10:00:00 24.5 4 Noroeste 9 Oeste 0 966.7 0.7 29
2019-06-02 09:00:00 21.5 5 Oeste 7 Noroeste 0 966.5 1 40
2019-06-02 08:00:00 19.6 0 Calma 9 Noroeste 0 966.1 0.6 42
2019-06-02 07:00:00 18.5 4 Oeste 13 Este 0 966 0.9 39
2019-06-02 06:00:00 18.3 3 Sudeste 10 Sudeste 0 965.5 0.4 40
2019-06-02 05:00:00 19.1 3 Sur 14 Oeste 0 965.5 0.3 44
2019-06-02 04:00:00 19.7 3 Sur 15 Oeste 0 965.1 -0.4 41
2019-06-02 03:00:00 21.4 8 Oeste 14 Sudeste 0 965.1 -0.3 27
2019-06-02 02:00:00 21.6 3 Norte 9 Norte 0 965.2 0.4 26
2019-06-02 01:00:00 23.3 4 Nordeste 9 Este 0 965.5 1.2 27
2019-06-02 00:00:00 25.4 4 Sur 22 Noroeste 0 965.4 1.3 23
2019-06-01 23:00:00 25.7 5 Sudeste 10 Sudeste 0 964.8 0.8 21
2019-06-01 22:00:00 27.7 6 Sur 8 Sur 0 964.3 0.1 21
2019-06-01 21:00:00 33.7 4 Oeste 18 Noroeste 0 964.1 -0.5 12
2019-06-01 20:00:00 34.9 11 Noroeste 17 Oeste 0 964 -1.1 10
2019-06-01 19:00:00 35 6 Este 22 Oeste 0 964.2 -1.6 9
2019-06-01 18:00:00 35.4 6 Oeste 21 Norte 0 964.6 -1.9 10
2019-06-01 17:00:00 35.3 8 Norte 19 Noroeste 0 965.1 -2.2 11
2019-06-01 16:00:00 35 4 Sur 20 Nordeste 0 965.8 -2.2 10
2019-06-01 15:00:00 33.6 6 Sudoeste 19 Oeste 0 966.5 -1.8 12
2019-06-01 14:00:00 32.6 7 Norte 14 Sudoeste 0 967.3 -1.3 14
2019-06-01 13:00:00 30.6 7 Este 14 Norte 0 968 -0.6 15
2019-06-01 12:00:00 29.2 3 Oeste 8 Noroeste 0 968.3 -0.2 17
2019-06-01 11:00:00 26.5 4 Sudoeste 12 Oeste 0 968.6 0.5 21
2019-06-01 10:00:00 23.8 5 Oeste 10 Noroeste 0 968.6 0.9 24
2019-06-01 09:00:00 20.7 3 Noroeste 9 Oeste 0 968.5 0.9 31
2019-06-01 08:00:00 17.7 3 Norte 8 Sur 0 968.1 0.8 41
2019-06-01 07:00:00 15 3 Este 7 Sudeste 0 967.7 0.2 44
2019-06-01 06:00:00 17.6 4 Sudoeste 8 Sur 0 967.6 0.4 35
2019-06-01 05:00:00 18.4 5 Sur 9 Sudeste 0 967.3 0.2 32
2019-06-01 04:00:00 19.5 5 Sudoeste 11 Sudoeste 0 967.5 0.5 31
2019-06-01 03:00:00 20.8 6 Oeste 12 Noroeste 0 967.2 0.3 27
2019-06-01 02:00:00 23 4 Oeste 24 Este 0 967.1 0.4 21
2019-06-01 01:00:00 27.3 19 Sudeste 31 Sudeste 0 967 1 13
2019-06-01 00:00:00 28.3 17 Sudeste 35 Sudeste 0 966.9 1 12
2019-05-31 23:00:00 29.4 18 Sudeste 35 Sudeste 0 966.7 1.1 11
2019-05-31 22:00:00 30.3 12 Sudeste 18 Este 0 966 0.1 11
2019-05-31 21:00:00 32.4 12 Este 21 Este 0 965.9 -0.4 10
2019-05-31 20:00:00 33.7 10 Este 21 Nordeste 0 965.6 -1.2 11
2019-05-31 19:00:00 34 9 Este 17 Este 0 965.9 -1.3 11
2019-05-31 18:00:00 34.3 13 Nordeste 25 Nordeste 0 966.3 -1.6 11
2019-05-31 17:00:00 34.3 15 Nordeste 24 Nordeste 0 966.8 -1.8 11
2019-05-31 16:00:00 33.4 6 Sur 30 Nordeste 0 967.2 -2.1 11
2019-05-31 15:00:00 33.1 15 Nordeste 29 Este 0 967.9 -1.7 12
2019-05-31 14:00:00 31.6 6 Norte 21 Este 0 968.6 -1.3 15
2019-05-31 13:00:00 30.9 6 Este 19 Nordeste 0 969.3 -0.7 16
2019-05-31 12:00:00 29.4 4 Oeste 14 Sudeste 0 969.6 -0.4 18
2019-05-31 11:00:00 27.1 4 Noroeste 8 Este 0 969.9 -0.1 21
2019-05-31 10:00:00 23.8 5 Oeste 9 Oeste 0 970 0.6 26
2019-05-31 09:00:00 21.8 2 Oeste 6 Norte 0 970 0.9 30
2019-05-31 08:00:00 18.4 2 Sudoeste 5 Sudoeste 0 970 1 43
2019-05-31 07:00:00 16.3 3 Sudoeste 7 Sudoeste 0 969.4 0.6 43
2019-05-31 06:00:00 16 3 Sur 9 Este 0 969.1 0.1 44
2019-05-31 05:00:00 17.8 2 Sur 9 Sudoeste 0 969 -0.2 37
2019-05-31 04:00:00 18.8 4 Sudoeste 8 Sudoeste 0 968.8 -0.2 33
2019-05-31 03:00:00 19.8 4 Oeste 9 Oeste 0 969 -0.2 30
2019-05-31 02:00:00 22.2 5 Noroeste 19 Sudeste 0 969.2 0.3 24
2019-05-31 01:00:00 23.9 9 Sudeste 18 Sudeste 0 969 0.9 20
2019-05-31 00:00:00 26.2 9 Este 23 Este 0 969.2 1.5 17
2019-05-30 23:00:00 24 6 Este 14 Este 0 968.9 1.5 23
2019-05-30 22:00:00 28.3 7 Este 16 Sudeste 0 968.1 0.5 15
2019-05-30 21:00:00 30.9 12 Este 24 Sudeste 0 967.7 -0.3 12
2019-05-30 20:00:00 31.9 14 Este 26 Nordeste 0 967.4 -1.1 12
2019-05-30 19:00:00 32.3 14 Nordeste 26 Este 0 967.6 -1.2 11
2019-05-30 18:00:00 32.9 14 Nordeste 27 Este 0 968 -1.5 12
2019-05-30 17:00:00 32.1 12 Este 31 Nordeste 0 968.5 -1.6 12
2019-05-30 16:00:00 31.4 15 Este 28 Nordeste 0 968.8 -1.9 11
2019-05-30 15:00:00 31.3 15 Nordeste 26 Norte 0 969.5 -1.5 12
2019-05-30 14:00:00 29.3 14 Nordeste 28 Este 0 970.1 -1.1 14
2019-05-30 13:00:00 27.7 17 Nordeste 29 Nordeste 0 970.7 -0.5 17
2019-05-30 12:00:00 26.5 15 Este 28 Nordeste 0 971 -0.1 19
2019-05-30 11:00:00 25.1 13 Este 23 Este 0 971.2 0.6 24
2019-05-30 10:00:00 23.1 9 Nordeste 22 Nordeste 0 971.2 1.2 27
2019-05-30 09:00:00 20.6 13 Nordeste 21 Nordeste 0 971.1 1.3 30
2019-05-30 08:00:00 17.6 5 Sur 12 Nordeste 0 970.6 0.8 37
2019-05-30 07:00:00 16 12 Nordeste 15 Nordeste 0 970 0.3 37
2019-05-30 06:00:00 16.5 5 Nordeste 10 Noroeste 0 969.8 0.1 39
2019-05-30 05:00:00 17.9 5 Norte 10 Noroeste 0 969.8 0 36
2019-05-30 04:00:00 18.1 4 Noroeste 10 Oeste 0 969.7 0.2 35
2019-05-30 03:00:00 19.3 4 Nordeste 12 Este 0 969.7 0.3 35
2019-05-30 02:00:00 19 5 Sur 11 Sur 0 969.8 1.3 33
2019-05-30 01:00:00 19.5 6 Sudoeste 11 Oeste 0 969.5 1.7 30
2019-05-30 00:00:00 20.1 6 Norte 16 Norte 0 969.4 1.9 30
2019-05-29 23:00:00 24.1 6 Sudeste 11 Este 0 968.5 1.5 20
2019-05-29 22:00:00 25.6 7 Este 15 Este 0 967.8 0.9 17
2019-05-29 21:00:00 28.1 12 Nordeste 26 Nordeste 0 967.5 0.4 13
2019-05-29 20:00:00 29.3 19 Nordeste 31 Nordeste 0 967 -0.3 12
2019-05-29 19:00:00 30.2 12 Este 28 Nordeste 0 966.9 -0.7 13
2019-05-29 18:00:00 30.4 15 Nordeste 31 Nordeste 0 967.1 -1 12
2019-05-29 17:00:00 30.2 14 Este 26 Este 0 967.3 -1.4 14
2019-05-29 16:00:00 29.3 12 Nordeste 26 Este 0 967.6 -1.6 16
2019-05-29 15:00:00 28.1 15 Este 31 Este 0 968.1 -1.1 16
2019-05-29 14:00:00 26.3 14 Este 28 Nordeste 0 968.7 -0.5 18
2019-05-29 13:00:00 25.3 14 Nordeste 28 Nordeste 0 969.2 0.4 20
2019-05-29 12:00:00 23.5 18 Nordeste 31 Nordeste 0 969.2 0.7 23
2019-05-29 11:00:00 22.1 16 Este 28 Nordeste 0 969.2 1.4 24
2019-05-29 10:00:00 20.4 17 Este 27 Este 0 968.8 1.6 26
2019-05-29 09:00:00 19.6 13 Este 20 Este 0 968.5 1.6 28
2019-05-29 08:00:00 17.7 9 Este 17 Este 0 967.8 1.3 31
2019-05-29 07:00:00 15.7 5 Este 12 Este 0 967.2 1 37
2019-05-29 06:00:00 17.6 9 Este 19 Este 0 966.9 1.1 32
2019-05-29 05:00:00 18.6 11 Este 21 Este 0 966.5 0.7 28
2019-05-29 04:00:00 18.5 2 Nordeste 11 Nordeste 0 966.2 0.7 28
2019-05-29 03:00:00 19.5 4 Este 21 Este 0 965.8 1.1 22
2019-05-29 02:00:00 20.7 10 Este 27 Este 0 965.8 2 20
2019-05-29 01:00:00 22 12 Este 37 Nordeste 0 965.5 2.7 23
2019-05-29 00:00:00 23.4 20 Nordeste 33 Nordeste 0 964.7 2.8 21
2019-05-28 23:00:00 24.5 13 Nordeste 25 Nordeste 0 963.8 2.5 18
2019-05-28 22:00:00 26 12 Nordeste 23 Este 0 962.8 1.7 14
2019-05-28 21:00:00 29.8 12 Norte 26 Norte 0 961.9 0.8 15
2019-05-28 20:00:00 31.5 12 Norte 27 Norte 0 961.3 0.1 13
2019-05-28 19:00:00 32.2 16 Norte 24 Norte 0 961.1 -0.4 15
2019-05-28 18:00:00 32.4 13 Noroeste 26 Noroeste 0 961.1 -0.8 16
2019-05-28 17:00:00 32.5 14 Norte 26 Nordeste 0 961.2 -1 18
2019-05-28 16:00:00 31.7 11 Nordeste 27 Norte 0 961.5 -0.8 15
2019-05-28 15:00:00 31.2 9 Norte 28 Nordeste 0 961.9 -0.4 18
2019-05-28 14:00:00 30.3 10 Noroeste 31 Noroeste 0 962.2 0.1 20
2019-05-28 13:00:00 29.8 13 Norte 22 Norte 0 962.3 0.1 21
2019-05-28 12:00:00 27.9 14 Nordeste 24 Norte 0 962.3 0.2 24
2019-05-28 11:00:00 26.8 3 Sudoeste 14 Nordeste 0 962.1 0.3 29
2019-05-28 10:00:00 24.1 4 Nordeste 9 Nordeste 0 962.2 1.1 34
2019-05-28 09:00:00 19.9 5 Oeste 7 Sudoeste 0 962.1 1.5 42
2019-05-28 08:00:00 17 2 Sudoeste 7 Sudoeste 0 961.8 1.4 55
2019-05-28 07:00:00 15.4 3 Oeste 7 Sudoeste 0 961.1 0.6 58
2019-05-28 06:00:00 16.2 3 Sudoeste 6 Sudoeste 0 960.6 0.4 53
2019-05-28 05:00:00 16.9 2 Sudoeste 5 Este 0 960.4 0.1 50
2019-05-28 04:00:00 17.8 0 Calma 10 Este 0 960.5 0.3 46
2019-05-28 03:00:00 18.3 2 Sudoeste 7 Sudeste 0 960.2 0.2 46
2019-05-28 02:00:00 19.8 4 Sudoeste 8 Sur 0 960.3 0.9 42
2019-05-28 01:00:00 20.4 4 Oeste 7 Sudoeste 0 960.2 1.2 41
2019-05-28 00:00:00 22.9 5 Sudoeste 8 Oeste 0 960 1.3 34